createdAt,value
2023-04-27T00:00:15.160Z,94.93
2023-04-27T00:02:45.367Z,98.68
2023-04-27T00:05:16.379Z,88.82
2023-04-27T00:07:46.626Z,96.65
2023-04-27T00:10:16.595Z,94.15
2023-04-27T00:12:46.899Z,95.10
2023-04-27T00:15:17.151Z,96.78
2023-04-27T00:17:47.207Z,91.45
2023-04-27T00:20:18.401Z,92.72
2023-04-27T00:22:48.853Z,93.65
2023-04-27T00:25:18.871Z,95.07
2023-04-27T00:27:48.815Z,96.10
2023-04-27T00:30:20.451Z,89.80
2023-04-27T00:32:50.808Z,89.82
2023-04-27T00:37:54.633Z,89.75
2023-04-27T00:40:24.588Z,90.05
2023-04-27T00:42:58.620Z,95.13
2023-04-27T00:45:29.340Z,89.07
2023-04-27T00:48:06.612Z,88.03
2023-04-27T00:50:37.221Z,92.72
2023-04-27T00:55:39.934Z,91.30
2023-04-27T00:58:10.710Z,89.85
2023-04-27T01:00:42.478Z,85.68
2023-04-27T01:03:13.284Z,88.47
2023-04-27T01:05:47.224Z,93.78
2023-04-27T01:08:17.397Z,97.47
2023-04-27T01:13:16.605Z,93.75
2023-04-27T01:15:47.834Z,93.93
2023-04-27T01:18:17.910Z,96.82
2023-04-27T01:20:48.617Z,95.53
2023-04-27T01:23:20.593Z,98.20
2023-04-27T01:25:50.514Z,95.13
2023-04-27T01:28:20.470Z,98.47
2023-04-27T01:30:51.613Z,99.75
2023-04-27T01:33:21.678Z,98.10
2023-04-27T01:35:54.036Z,102.90
2023-04-27T01:38:25.732Z,102.93
2023-04-27T01:40:57.108Z,110.13
2023-04-27T01:43:26.942Z,105.57
2023-04-27T01:45:57.096Z,110.25
2023-04-27T01:50:56.369Z,108.80
2023-04-27T01:53:26.401Z,110.85
2023-04-27T01:55:56.379Z,110.22
2023-04-27T01:58:32.722Z,118.18
2023-04-27T02:01:03.700Z,119.18
2023-04-27T02:03:34.371Z,116.10
2023-04-27T02:06:04.941Z,120.85
2023-04-27T02:08:36.501Z,118.80
2023-04-27T02:11:08.309Z,115.78
2023-04-27T02:13:38.276Z,124.45
2023-04-27T02:18:37.840Z,120.93
2023-04-27T02:23:43.570Z,125.10
2023-04-27T02:28:54.102Z,121.10
2023-04-27T02:31:25.782Z,125.60
2023-04-27T02:33:55.847Z,122.53
2023-04-27T02:38:55.573Z,116.70
2023-04-27T02:41:25.738Z,112.53
2023-04-27T02:44:02.269Z,113.40
2023-04-27T02:46:32.601Z,113.10
2023-04-27T02:49:02.619Z,111.93
2023-04-27T02:54:02.098Z,119.82
2023-04-27T02:56:32.581Z,122.20
2023-04-27T02:59:02.712Z,117.03
2023-04-27T03:04:02.230Z,117.80
2023-04-27T03:06:32.291Z,115.35
2023-04-27T03:11:31.483Z,116.67
2023-04-27T03:16:31.383Z,109.10
2023-04-27T03:19:01.594Z,108.65
2023-04-27T03:21:31.630Z,106.82
2023-04-27T03:24:04.564Z,106.93
2023-04-27T03:26:34.458Z,103.38
2023-04-27T03:29:04.426Z,100.90
2023-04-27T03:31:34.466Z,97.03
2023-04-27T03:34:05.893Z,106.25
2023-04-27T03:36:35.782Z,101.13
2023-04-27T03:39:05.794Z,101.75
2023-04-27T03:41:35.864Z,104.47
2023-04-27T03:44:07.743Z,106.88
2023-04-27T03:46:41.493Z,104.47
2023-04-27T03:49:13.523Z,107.05
2023-04-27T03:51:44.302Z,101.25
2023-04-27T03:54:14.216Z,96.50
2023-04-27T03:56:44.081Z,109.82
2023-04-27T04:04:13.674Z,106.30
2023-04-27T04:06:45.529Z,105.97
2023-04-27T04:09:17.000Z,103.47
2023-04-27T04:11:47.008Z,103.22
2023-04-27T04:14:16.998Z,99.68
2023-04-27T04:16:46.968Z,94.60
2023-04-27T04:19:19.591Z,99.28
2023-04-27T04:21:51.663Z,95.38
2023-04-27T04:24:22.622Z,92.18
2023-04-27T04:26:53.064Z,89.43
2023-04-27T04:29:24.453Z,91.55
2023-04-27T04:31:59.861Z,87.78
2023-04-27T04:34:30.881Z,76.43
2023-04-27T04:37:01.146Z,75.05
2023-04-27T04:39:35.848Z,70.82
2023-04-27T04:42:06.309Z,78.05
2023-04-27T04:44:36.311Z,81.85
2023-04-27T04:47:06.475Z,78.22
2023-04-27T04:49:38.283Z,75.10
2023-04-27T04:52:08.394Z,79.10
2023-04-27T04:54:38.283Z,79.78
2023-04-27T04:57:10.458Z,79.68
2023-04-27T04:59:40.475Z,74.88
2023-04-27T05:02:10.786Z,81.07
2023-04-27T05:04:41.509Z,66.45
2023-04-27T05:07:19.164Z,65.70
2023-04-27T05:09:52.438Z,70.60
2023-04-27T05:12:23.625Z,73.45
2023-04-27T05:14:55.050Z,77.53
2023-04-27T05:17:25.389Z,78.03
2023-04-27T05:19:55.378Z,73.63
2023-04-27T05:22:30.187Z,62.78
2023-04-27T05:25:00.739Z,60.38
2023-04-27T05:27:30.794Z,59.45
2023-04-27T05:30:00.638Z,67.63
2023-04-27T05:32:30.629Z,66.63
2023-04-27T05:35:02.056Z,74.95
2023-04-27T05:37:32.078Z,55.85
2023-04-27T05:40:02.243Z,51.72
2023-04-27T05:42:32.592Z,54.20
2023-04-27T05:45:02.267Z,49.58
2023-04-27T05:47:32.779Z,49.50
2023-04-27T05:50:05.320Z,54.33
2023-04-27T05:52:37.557Z,49.33
2023-04-27T05:55:10.171Z,48.70
2023-04-27T05:57:41.487Z,47.30
2023-04-27T06:00:12.724Z,49.55
2023-04-27T06:02:43.081Z,46.20
2023-04-27T06:05:13.725Z,43.40
2023-04-27T06:07:45.560Z,43.67
2023-04-27T06:10:15.753Z,43.50
2023-04-27T06:12:47.787Z,44.70
2023-04-27T06:15:18.691Z,44.30
2023-04-27T06:17:51.806Z,48.60
2023-04-27T06:20:22.178Z,47.13
2023-04-27T06:22:53.040Z,50.97
2023-04-27T06:25:25.013Z,49.85
2023-04-27T06:28:01.192Z,48.00
2023-04-27T06:30:32.783Z,53.40
2023-04-27T06:33:03.323Z,50.25
2023-04-27T06:35:33.831Z,51.47
2023-04-27T06:38:07.949Z,55.92
2023-04-27T06:40:39.176Z,53.45
2023-04-27T06:43:09.567Z,52.85
2023-04-27T06:45:39.973Z,51.67
2023-04-27T06:48:10.497Z,50.78
2023-04-27T06:50:40.911Z,50.95
2023-04-27T06:53:11.824Z,51.97
2023-04-27T06:55:44.422Z,53.47
2023-04-27T06:58:16.071Z,56.10
2023-04-27T07:00:49.481Z,55.33
2023-04-27T07:03:21.301Z,54.75
2023-04-27T07:05:53.258Z,53.83
2023-04-27T07:08:23.638Z,54.25
2023-04-27T07:10:53.974Z,53.63
2023-04-27T07:13:25.712Z,55.42
2023-04-27T07:16:03.010Z,58.10
2023-04-27T07:18:36.215Z,55.90
2023-04-27T07:21:06.421Z,58.65
2023-04-27T07:23:37.057Z,62.08
2023-04-27T07:26:07.412Z,57.40
2023-04-27T07:28:37.890Z,54.35
2023-04-27T07:31:08.956Z,55.47
2023-04-27T07:33:39.281Z,54.00
2023-04-27T07:36:11.273Z,54.47
2023-04-27T07:38:41.759Z,54.10
2023-04-27T07:41:12.265Z,56.47
2023-04-27T07:43:43.916Z,55.97
2023-04-27T07:46:14.705Z,52.63
2023-04-27T07:48:45.621Z,54.35
2023-04-27T07:51:17.625Z,52.28
2023-04-27T07:53:48.037Z,52.05
2023-04-27T07:56:18.485Z,50.03
2023-04-27T07:58:48.871Z,53.50
2023-04-27T08:01:21.409Z,51.92
2023-04-27T08:03:52.509Z,51.55
2023-04-27T08:06:23.888Z,53.28
2023-04-27T08:08:54.784Z,52.33
2023-04-27T08:11:25.014Z,53.70
2023-04-27T08:13:55.289Z,50.65
2023-04-27T08:16:25.291Z,51.75
2023-04-27T08:18:55.522Z,52.10
2023-04-27T08:21:27.861Z,47.30
2023-04-27T08:24:00.375Z,53.08
2023-04-27T08:26:30.651Z,50.63
2023-04-27T08:29:19.288Z,50.03
2023-04-27T08:31:52.638Z,49.08
2023-04-27T08:34:23.661Z,50.58
2023-04-27T08:36:54.647Z,46.95
2023-04-27T08:39:25.861Z,49.95
2023-04-27T08:41:55.994Z,51.05
2023-04-27T08:44:26.451Z,49.90
2023-04-27T08:46:57.802Z,51.70
2023-04-27T08:49:28.364Z,50.50
2023-04-27T08:51:58.502Z,51.03
2023-04-27T08:54:28.824Z,49.58
2023-04-27T08:57:00.351Z,48.90
2023-04-27T08:59:30.628Z,49.10
2023-04-27T09:02:00.717Z,46.50
2023-04-27T09:04:48.527Z,50.25
2023-04-27T09:07:20.574Z,51.45
2023-04-27T09:09:51.631Z,53.17
2023-04-27T09:12:23.975Z,53.38
2023-04-27T09:15:01.748Z,50.85
2023-04-27T09:17:32.917Z,52.28
2023-04-27T09:20:15.098Z,54.53
2023-04-27T09:22:49.023Z,51.40
2023-04-27T09:25:33.036Z,53.75
2023-04-27T09:28:04.895Z,52.08
2023-04-27T09:30:35.429Z,51.63
2023-04-27T09:33:06.637Z,48.00
2023-04-27T09:35:37.063Z,51.65
2023-04-27T09:38:07.789Z,50.97
2023-04-27T09:40:38.555Z,50.25
2023-04-27T09:43:10.062Z,50.53
2023-04-27T09:45:41.443Z,52.38
2023-04-27T09:48:12.872Z,47.20
2023-04-27T09:50:46.187Z,51.60
2023-04-27T09:53:20.712Z,52.05
2023-04-27T09:56:02.579Z,52.30
2023-04-27T09:59:09.382Z,52.28
2023-04-27T10:01:50.002Z,53.20
2023-04-27T10:04:58.736Z,51.63
2023-04-27T10:07:30.610Z,48.83
2023-04-27T10:10:06.518Z,55.60
2023-04-27T10:12:38.561Z,51.42
2023-04-27T10:15:18.871Z,51.80
2023-04-27T10:17:57.167Z,59.53
2023-04-27T10:20:40.704Z,58.03
2023-04-27T10:23:11.429Z,60.47
2023-04-27T10:25:43.872Z,59.58
2023-04-27T10:28:20.238Z,56.33
2023-04-27T10:30:51.308Z,60.15
2023-04-27T10:33:24.823Z,61.10
2023-04-27T10:36:02.078Z,63.22
2023-04-27T10:38:34.740Z,61.85
2023-04-27T10:41:09.125Z,63.03
2023-04-27T10:43:39.475Z,62.45
2023-04-27T10:46:17.290Z,61.83
2023-04-27T10:48:47.806Z,63.67
2023-04-27T10:51:21.253Z,64.20
2023-04-27T10:53:55.662Z,64.82
2023-04-27T10:56:26.513Z,67.45
2023-04-27T10:58:58.788Z,63.97
2023-04-27T11:01:31.021Z,63.28
2023-04-27T11:04:04.993Z,65.70
2023-04-27T11:06:45.841Z,65.43
2023-04-27T11:09:30.571Z,66.10
2023-04-27T11:12:00.820Z,63.53
2023-04-27T11:14:31.799Z,66.82
2023-04-27T11:17:02.335Z,70.05
2023-04-27T11:19:33.892Z,64.72
2023-04-27T11:22:08.708Z,69.78
2023-04-27T11:24:39.139Z,67.05
2023-04-27T11:27:09.361Z,68.35
2023-04-27T11:29:44.174Z,66.18
2023-04-27T11:32:25.306Z,66.22
2023-04-27T11:34:58.414Z,64.65
2023-04-27T11:37:31.354Z,64.40
2023-04-27T11:40:04.448Z,66.65
2023-04-27T11:42:34.799Z,63.63
2023-04-27T11:45:08.336Z,64.85
2023-04-27T11:47:39.664Z,65.63
2023-04-27T11:50:11.476Z,65.25
2023-04-27T11:52:42.994Z,62.65
2023-04-27T11:55:17.560Z,62.95
2023-04-27T11:57:47.759Z,62.95
2023-04-27T12:00:18.979Z,64.88
2023-04-27T12:02:49.075Z,62.17
2023-04-27T12:05:21.567Z,65.43
2023-04-27T12:07:51.736Z,62.83
2023-04-27T12:12:50.996Z,62.60
2023-04-27T12:17:50.137Z,64.20
2023-04-27T12:20:23.299Z,66.97
2023-04-27T12:22:53.461Z,67.72
2023-04-27T12:25:23.647Z,66.10
2023-04-27T12:27:54.108Z,68.13
2023-04-27T12:30:25.586Z,67.78
2023-04-27T12:32:57.265Z,66.60
2023-04-27T12:35:30.254Z,68.65
2023-04-27T12:38:00.501Z,72.53
2023-04-27T12:40:34.456Z,76.05
2023-04-27T12:43:04.384Z,71.13
2023-04-27T12:48:04.629Z,76.40
2023-04-27T12:50:35.360Z,73.55
2023-04-27T12:53:05.683Z,79.75
2023-04-27T12:55:35.874Z,77.30
2023-04-27T12:58:06.606Z,79.97
2023-04-27T13:00:37.162Z,81.82
2023-04-27T13:03:08.418Z,81.18
2023-04-27T13:05:39.616Z,84.38
2023-04-27T13:08:09.506Z,79.40
2023-04-27T13:10:39.619Z,80.63
2023-04-27T13:13:12.830Z,80.25
2023-04-27T13:15:44.153Z,83.72
2023-04-27T13:18:14.149Z,82.97
2023-04-27T13:20:45.736Z,85.78
2023-04-27T13:23:16.808Z,89.57
2023-04-27T13:25:47.120Z,86.43
2023-04-27T13:28:19.173Z,95.95
2023-04-27T13:30:51.133Z,122.32
2023-04-27T13:33:23.678Z,154.43
2023-04-27T13:35:54.567Z,135.02
2023-04-27T13:38:26.353Z,129.00
2023-04-27T13:40:57.034Z,108.75
2023-04-27T13:43:28.722Z,101.20
2023-04-27T13:46:00.756Z,96.43
2023-04-27T13:48:32.049Z,95.28
2023-04-27T13:51:02.447Z,92.88
2023-04-27T13:53:32.773Z,90.60
2023-04-27T13:56:02.927Z,88.38
2023-04-27T13:58:34.806Z,91.22
2023-04-27T14:01:05.630Z,89.93
2023-04-27T14:03:37.108Z,87.97
2023-04-27T14:06:09.397Z,91.90
2023-04-27T14:08:39.648Z,87.70
2023-04-27T14:11:09.952Z,88.90
2023-04-27T14:13:40.190Z,95.88
2023-04-27T14:16:11.084Z,94.57
2023-04-27T14:18:42.274Z,95.97
2023-04-27T14:21:12.502Z,99.43
2023-04-27T14:23:43.063Z,94.18
2023-04-27T14:26:13.951Z,93.65
2023-04-27T14:28:44.748Z,93.68
2023-04-27T14:31:16.143Z,92.78
2023-04-27T14:33:48.474Z,93.50
2023-04-27T14:36:22.873Z,96.05
2023-04-27T14:38:53.234Z,93.80
2023-04-27T14:41:23.710Z,91.43
2023-04-27T14:43:54.787Z,93.82
2023-04-27T14:46:26.463Z,90.15
2023-04-27T14:48:56.829Z,96.03
2023-04-27T14:51:26.883Z,93.03
2023-04-27T14:56:31.600Z,95.53
2023-04-27T14:59:01.986Z,92.07
2023-04-27T15:01:33.973Z,90.85
2023-04-27T15:04:07.890Z,93.90
2023-04-27T15:06:37.809Z,93.43
2023-04-27T15:09:11.271Z,92.70
2023-04-27T15:11:41.564Z,94.95
2023-04-27T15:14:12.442Z,91.03
2023-04-27T15:16:42.209Z,92.82
2023-04-27T15:19:12.962Z,92.88
2023-04-27T15:21:43.394Z,98.13
2023-04-27T15:24:13.770Z,93.35
2023-04-27T15:26:44.207Z,97.32
2023-04-27T15:29:15.002Z,92.25
2023-04-27T15:31:45.449Z,89.97
2023-04-27T15:34:15.584Z,91.03
2023-04-27T15:39:15.494Z,92.45
2023-04-27T15:41:46.396Z,90.10
2023-04-27T15:44:16.656Z,90.63
2023-04-27T15:46:47.184Z,91.15
2023-04-27T15:49:17.845Z,92.22
2023-04-27T15:51:47.913Z,92.13
2023-04-27T15:56:47.962Z,95.20
2023-04-27T15:59:19.583Z,97.03
2023-04-27T16:01:49.660Z,98.88
2023-04-27T16:06:49.820Z,98.00
2023-04-27T16:09:20.007Z,98.53
2023-04-27T16:11:49.726Z,101.47
2023-04-27T16:14:19.645Z,104.32
2023-04-27T16:16:53.152Z,102.13
2023-04-27T16:19:23.573Z,101.70
2023-04-27T16:21:53.537Z,100.40
2023-04-27T16:24:23.943Z,104.18
2023-04-27T16:26:54.588Z,100.43
2023-04-27T16:29:24.979Z,101.47
2023-04-27T16:31:55.699Z,104.40
2023-04-27T16:34:25.718Z,100.47
2023-04-27T16:36:56.594Z,97.78
2023-04-27T16:39:28.378Z,100.88
2023-04-27T16:41:58.807Z,103.80
2023-04-27T16:44:30.486Z,98.13
2023-04-27T16:47:00.778Z,99.22
2023-04-27T16:49:30.523Z,94.07
2023-04-27T16:52:00.680Z,101.68
2023-04-27T16:54:31.986Z,97.78
2023-04-27T16:57:02.251Z,97.07
2023-04-27T16:59:32.205Z,104.80
2023-04-27T17:02:12.935Z,97.72
2023-04-27T17:04:54.492Z,99.10
2023-04-27T17:07:24.815Z,100.97
2023-04-27T17:09:55.653Z,99.93
2023-04-27T17:12:28.591Z,98.40
2023-04-27T17:14:58.351Z,98.88
2023-04-27T17:17:29.379Z,97.70
2023-04-27T17:20:01.522Z,99.38
2023-04-27T17:22:31.843Z,94.28
2023-04-27T17:25:01.906Z,93.80
2023-04-27T17:30:01.304Z,93.85
2023-04-27T17:35:01.258Z,95.20
2023-04-27T17:40:00.332Z,93.50
2023-04-27T17:42:30.540Z,94.55
2023-04-27T17:47:31.252Z,93.20
2023-04-27T17:50:02.430Z,92.72
2023-04-27T17:52:32.335Z,87.55
2023-04-27T17:55:02.552Z,88.75
2023-04-27T18:00:01.391Z,88.72
2023-04-27T18:02:31.344Z,85.88
2023-04-27T18:05:02.020Z,88.88
2023-04-27T18:07:31.907Z,88.50
2023-04-27T18:10:01.704Z,92.28
2023-04-27T18:12:31.853Z,90.68
2023-04-27T18:15:04.419Z,92.63
2023-04-27T18:17:35.509Z,89.90
2023-04-27T18:20:10.759Z,92.30
2023-04-27T18:22:41.597Z,89.38
2023-04-27T18:25:14.910Z,90.97
2023-04-27T18:27:47.413Z,93.03
2023-04-27T18:30:17.590Z,90.95
2023-04-27T18:32:47.338Z,89.20
2023-04-27T18:35:17.108Z,91.82
2023-04-27T18:37:50.527Z,87.45
2023-04-27T18:40:22.400Z,89.80
2023-04-27T18:42:53.656Z,91.45
2023-04-27T18:45:23.579Z,86.72
2023-04-27T18:47:53.333Z,89.00
2023-04-27T18:50:24.881Z,94.13
2023-04-27T18:52:54.683Z,90.05
2023-04-27T18:55:26.723Z,86.18
2023-04-27T18:57:56.462Z,94.35
2023-04-27T19:00:26.260Z,90.00
2023-04-27T19:02:56.223Z,95.35
2023-04-27T19:05:27.295Z,92.55
2023-04-27T19:07:58.158Z,96.63
2023-04-27T19:10:29.610Z,98.00
2023-04-27T19:12:59.488Z,94.72
2023-04-27T19:15:29.379Z,100.32
2023-04-27T19:18:09.384Z,106.45
2023-04-27T19:20:40.762Z,107.13
2023-04-27T19:23:14.373Z,101.93
2023-04-27T19:25:44.262Z,105.30
2023-04-27T19:28:14.824Z,107.90
2023-04-27T19:30:44.916Z,102.40
2023-04-27T19:33:14.781Z,101.47
2023-04-27T19:35:44.854Z,104.57
2023-04-27T19:38:14.596Z,112.88
2023-04-27T19:40:44.329Z,113.80
2023-04-27T19:43:16.940Z,120.15
2023-04-27T19:45:46.832Z,139.18
2023-04-27T19:48:16.549Z,145.95
2023-04-27T19:50:49.015Z,145.43
2023-04-27T19:53:20.645Z,148.27
2023-04-27T19:55:50.541Z,144.82
2023-04-27T19:58:20.433Z,147.68
2023-04-27T20:00:50.159Z,140.93
2023-04-27T20:03:24.076Z,143.48
2023-04-27T20:05:55.727Z,136.65
2023-04-27T20:08:25.715Z,141.18
2023-04-27T20:10:55.677Z,134.43
2023-04-27T20:13:25.465Z,134.10
2023-04-27T20:15:55.178Z,140.05
2023-04-27T20:18:26.649Z,135.48
2023-04-27T20:20:56.500Z,136.15
2023-04-27T20:23:27.867Z,135.15
2023-04-27T20:26:00.557Z,131.35
2023-04-27T20:28:30.546Z,132.40
2023-04-27T20:31:00.744Z,127.13
2023-04-27T20:33:30.577Z,125.03
2023-04-27T20:36:06.731Z,127.13
2023-04-27T20:38:46.382Z,122.75
2023-04-27T20:41:16.283Z,119.78
2023-04-27T20:43:47.099Z,121.70
2023-04-27T20:46:17.013Z,121.57
2023-04-27T20:48:47.945Z,119.63
2023-04-27T20:51:17.890Z,123.43
2023-04-27T20:53:47.798Z,120.93
2023-04-27T20:56:18.497Z,120.40
2023-04-27T20:58:48.472Z,120.40
2023-04-27T21:01:18.425Z,127.40
2023-04-27T21:03:48.226Z,127.43
2023-04-27T21:06:19.495Z,127.28
2023-04-27T21:08:49.351Z,125.22
2023-04-27T21:11:19.116Z,125.53
2023-04-27T21:13:48.923Z,130.32
2023-04-27T21:16:18.672Z,132.98
2023-04-27T21:18:48.413Z,122.78
2023-04-27T21:21:17.997Z,124.38
2023-04-27T21:23:49.849Z,121.10
2023-04-27T21:26:21.918Z,122.82
2023-04-27T21:28:51.632Z,121.18
2023-04-27T21:31:21.535Z,124.53
2023-04-27T21:33:52.364Z,125.38
2023-04-27T21:36:22.682Z,125.55
2023-04-27T21:41:23.704Z,135.80
2023-04-27T21:43:54.939Z,158.98
2023-04-27T21:46:26.119Z,155.13
2023-04-27T21:48:55.863Z,150.45
2023-04-27T21:51:25.592Z,147.27
2023-04-27T21:53:55.493Z,150.50
2023-04-27T21:56:25.200Z,148.82
2023-04-27T21:58:56.438Z,150.98
2023-04-27T22:01:28.598Z,151.38
2023-04-27T22:04:00.982Z,156.10
2023-04-27T22:06:32.961Z,151.73
2023-04-27T22:09:03.884Z,161.07
2023-04-27T22:11:35.065Z,162.75
2023-04-27T22:14:04.965Z,156.95
2023-04-27T22:16:35.020Z,171.52
2023-04-27T22:19:05.541Z,170.00
2023-04-27T22:24:04.532Z,192.48
2023-04-27T22:26:35.274Z,192.57
2023-04-27T22:29:05.026Z,198.15
2023-04-27T22:31:35.181Z,205.10
2023-04-27T22:36:35.809Z,228.90
2023-04-27T22:39:05.845Z,253.25
2023-04-27T22:41:35.658Z,260.00
2023-04-27T22:44:05.415Z,296.35
2023-04-27T22:46:35.228Z,322.27
2023-04-27T22:49:05.084Z,328.92
2023-04-27T22:51:34.788Z,336.70
2023-04-27T22:54:04.540Z,331.33
2023-04-27T22:56:34.773Z,326.35
2023-04-27T23:01:34.596Z,317.27
2023-04-27T23:04:04.554Z,319.40
2023-04-27T23:06:35.310Z,320.75
2023-04-27T23:09:05.064Z,309.73
2023-04-27T23:11:34.787Z,311.67
2023-04-27T23:14:04.806Z,309.65
2023-04-27T23:16:34.712Z,290.98
2023-04-27T23:19:04.625Z,285.35
2023-04-27T23:22:32.208Z,266.88
2023-04-27T23:25:08.759Z,246.23
2023-04-27T23:27:38.691Z,252.18
2023-04-27T23:30:08.750Z,251.23
2023-04-27T23:32:39.037Z,252.95
2023-04-27T23:37:38.833Z,221.48
2023-04-27T23:40:08.981Z,223.95
2023-04-27T23:42:38.691Z,152.15
2023-04-27T23:45:08.739Z,138.75
2023-04-27T23:47:40.100Z,142.82
2023-04-27T23:50:10.181Z,145.10
2023-04-27T23:52:39.378Z,137.30
2023-04-27T23:55:39.889Z,147.45
2023-04-27T23:58:09.694Z,156.75
